Langara, Canada
Current Conditions -  °F | °C
As of 6:00 PM on Tuesday 21 Oct 2014 (Local Time) from CZMT Reporting Station
Broken Clouds Broken Clouds  
Wind Chill: 50°   Ceiling: 1500
Heat Index: 50°   Visibility: 15mi
Dew Point: 45°   Wind: 15mph
Humidity: 82%   Direction: 150°SSE
Pressure: 29.2"   Gusts: NA
Location:  54.23°N, 133°W
Report Text: CZMT 220100Z 15013KT 15SM FEW008 BKN015CB BKN030 10/07 A2920 RMK CF1CB5SC1 SH SW LAST OBS/NEXT 221400 UTC SLP889 DENSITY ALT 200FT
Loading
Personal Weather Stations






























Interactive Weather Map New forecast layout! Learn more

10-Day Weather Forecast

Advertisements
Track Severe Weather on mobile